Time;durP1;ratioP1;P1;durP2;ratioP2;P2;SDS_P1;SDS_P2;PMS_P1;PMS_P2;Temp;Humidity;BMP_temperature;BMP_pressure;BME280_temperature;BME280_humidity;BME280_pressure;Samples;Min_cycle;Max_cycle;Signal;HPM_P1;HPM_P2
2021/09/01 00:00:07;;;;;;;8.18;5.80;;;16.60;99.90;;;;;;5075490;28;20107;-85
2021/09/01 00:02:32;;;;;;;6.47;5.80;;;16.60;99.90;;;;;;5075470;28;20070;-85
2021/09/01 00:04:58;;;;;;;7.80;6.03;;;16.60;99.90;;;;;;5074526;28;20024;-85
2021/09/01 00:07:24;;;;;;;8.57;6.05;;;16.60;99.90;;;;;;5074180;28;20027;-85
2021/09/01 00:09:49;;;;;;;8.05;5.88;;;16.60;99.90;;;;;;5074193;28;20028;-84
2021/09/01 00:12:15;;;;;;;7.35;6.10;;;16.60;99.90;;;;;;5074075;28;20036;-85
2021/09/01 00:14:41;;;;;;;9.93;6.43;;;16.50;99.90;;;;;;5074116;28;20021;-85
2021/09/01 00:17:06;;;;;;;7.75;6.20;;;16.50;99.90;;;;;;5074049;28;20035;-85
2021/09/01 00:19:32;;;;;;;10.00;6.15;;;16.50;99.90;;;;;;5073935;28;20390;-85
2021/09/01 00:21:58;;;;;;;10.15;6.20;;;16.50;99.90;;;;;;5073915;28;20020;-85
2021/09/01 00:24:23;;;;;;;6.75;6.00;;;16.50;99.90;;;;;;5075151;28;20017;-85
2021/09/01 00:26:49;;;;;;;7.50;5.85;;;16.40;99.90;;;;;;5075301;28;20017;-85
2021/09/01 00:29:15;;;;;;;9.05;5.97;;;16.50;99.90;;;;;;5073729;28;20387;-84
2021/09/01 00:31:41;;;;;;;6.88;5.80;;;16.40;99.90;;;;;;5073726;28;20078;-85
2021/09/01 00:34:06;;;;;;;6.10;5.50;;;16.40;99.90;;;;;;5074910;28;20063;-85
2021/09/01 00:36:32;;;;;;;6.72;5.55;;;16.40;99.90;;;;;;5073672;28;20448;-86
2021/09/01 00:38:58;;;;;;;8.45;6.03;;;16.40;99.90;;;;;;5073409;28;20387;-85
2021/09/01 00:41:25;;;;;;;6.93;5.80;;;16.40;99.90;;;;;;5073541;28;20044;-85
2021/09/01 00:43:53;;;;;;;7.53;5.55;;;16.40;99.90;;;;;;5073550;28;20024;-85
2021/09/01 00:46:19;;;;;;;6.32;5.63;;;16.30;99.90;;;;;;5073241;28;20027;-85
2021/09/01 00:48:45;;;;;;;6.28;5.68;;;16.30;99.90;;;;;;5073297;28;20073;-85
2021/09/01 00:51:11;;;;;;;6.97;5.47;;;16.30;99.90;;;;;;5074537;28;20089;-85
2021/09/01 00:53:43;;;;;;;9.95;5.32;;;16.30;99.90;;;;;;5073171;28;20055;-84
2021/09/01 00:56:15;;;;;;;5.63;5.00;;;16.30;99.90;;;;;;5073204;28;20119;-84
2021/09/01 00:58:41;;;;;;;6.07;5.25;;;16.30;99.90;;;;;;5073047;28;20131;-85
2021/09/01 01:03:33;;;;;;;7.10;5.38;;;16.20;99.90;;;;;;5074312;28;20024;-84
2021/09/01 01:05:59;;;;;;;7.60;5.25;;;16.20;99.90;;;;;;5074326;28;20028;-84
2021/09/01 01:08:34;;;;;;;7.13;4.90;;;16.20;99.90;;;;;;5072571;28;20028;-85
2021/09/01 01:11:00;;;;;;;9.20;5.78;;;16.20;99.90;;;;;;5073035;28;20493;-84
2021/09/01 01:13:30;;;;;;;8.48;5.80;;;16.20;99.90;;;;;;5074467;28;20552;-85
2021/09/01 01:15:58;;;;;;;8.07;6.47;;;16.20;99.90;;;;;;5074089;28;20054;-85
2021/09/01 01:18:25;;;;;;;9.23;5.75;;;16.20;99.90;;;;;;5072770;28;20127;-85
2021/09/01 01:20:51;;;;;;;7.07;6.38;;;16.10;99.90;;;;;;5072797;28;20407;-84
2021/09/01 01:23:18;;;;;;;9.77;6.00;;;16.10;99.90;;;;;;5074001;28;20024;-85
2021/09/01 01:25:44;;;;;;;7.43;6.43;;;16.10;99.90;;;;;;5072769;28;20051;-85
2021/09/01 01:28:11;;;;;;;10.15;6.22;;;16.10;99.90;;;;;;5072686;28;20025;-85
2021/09/01 01:30:38;;;;;;;9.45;6.70;;;16.10;99.90;;;;;;5072677;28;20467;-85
2021/09/01 01:33:04;;;;;;;9.30;6.43;;;16.10;99.90;;;;;;5074188;28;20028;-85
2021/09/01 01:35:37;;;;;;;11.52;7.47;;;16.10;99.90;;;;;;5072553;28;20031;-85
2021/09/01 01:38:09;;;;;;;8.45;6.30;;;16.10;99.90;;;;;;5072438;28;20383;-84
2021/09/01 01:40:36;;;;;;;10.13;7.03;;;16.10;99.90;;;;;;5072536;28;20024;-84
2021/09/01 01:43:02;;;;;;;9.45;7.18;;;16.10;99.90;;;;;;5072393;28;20028;-84
2021/09/01 01:45:40;;;;;;;7.47;6.55;;;16.10;99.90;;;;;;5072332;28;20459;-84
2021/09/01 01:48:07;;;;;;;10.90;7.80;;;16.10;99.90;;;;;;5072482;28;20032;-85
2021/09/01 01:50:35;;;;;;;9.68;7.85;;;16.10;99.90;;;;;;5072403;28;20069;-85
2021/09/01 01:53:00;;;;;;;12.02;7.78;;;16.10;99.90;;;;;;5072421;28;20048;-84
2021/09/01 01:55:27;;;;;;;11.93;7.97;;;16.00;99.90;;;;;;5072418;28;20466;-84
2021/09/01 01:57:52;;;;;;;9.50;6.95;;;16.00;99.90;;;;;;5072045;28;20021;-84
2021/09/01 02:00:18;;;;;;;13.88;8.02;;;16.00;99.90;;;;;;5072340;28;20098;-85
2021/09/01 02:02:44;;;;;;;9.57;7.20;;;16.00;99.90;;;;;;5072395;28;20052;-85
2021/09/01 02:05:10;;;;;;;9.65;7.60;;;16.00;99.90;;;;;;5072133;28;20017;-84
2021/09/01 02:07:36;;;;;;;8.73;7.80;;;16.00;99.90;;;;;;5072313;28;20055;-84
2021/09/01 02:10:03;;;;;;;9.98;6.40;;;16.00;99.90;;;;;;5072341;28;20070;-85
2021/09/01 02:12:29;;;;;;;9.65;7.00;;;15.90;99.90;;;;;;5072215;28;20119;-85
2021/09/01 02:14:59;;;;;;;9.95;7.57;;;15.90;99.90;;;;;;5072040;28;20056;-85
2021/09/01 02:17:28;;;;;;;10.48;8.13;;;15.90;99.90;;;;;;5067895;28;20041;-84
2021/09/01 02:19:54;;;;;;;10.43;7.88;;;15.90;99.90;;;;;;5072709;28;20032;-86
2021/09/01 02:22:21;;;;;;;9.93;7.30;;;15.80;99.90;;;;;;5076196;28;20023;-85
2021/09/01 02:24:47;;;;;;;9.13;7.43;;;15.80;99.90;;;;;;5077358;28;20031;-85
2021/09/01 02:27:13;;;;;;;9.48;7.43;;;15.90;99.90;;;;;;5076128;28;20021;-85
2021/09/01 02:29:38;;;;;;;10.20;7.90;;;15.80;99.90;;;;;;5075992;28;20116;-85
2021/09/01 02:32:05;;;;;;;7.75;6.95;;;15.80;99.90;;;;;;5077100;28;20036;-86
2021/09/01 02:34:32;;;;;;;11.50;8.48;;;15.80;99.90;;;;;;5077244;28;20075;-86
2021/09/01 02:36:58;;;;;;;10.32;9.23;;;15.80;99.90;;;;;;5075934;28;20078;-86
2021/09/01 02:39:24;;;;;;;10.88;8.02;;;15.80;99.90;;;;;;5077094;28;20032;-86
2021/09/01 02:41:49;;;;;;;9.27;7.70;;;15.80;99.90;;;;;;5075871;28;20474;-86
2021/09/01 02:44:15;;;;;;;10.63;7.80;;;15.80;99.90;;;;;;5075775;28;20052;-86
2021/09/01 02:46:41;;;;;;;12.35;7.57;;;15.70;99.90;;;;;;5075513;28;20029;-86
2021/09/01 02:49:07;;;;;;;10.85;8.48;;;15.70;99.90;;;;;;5075718;28;20493;-86
2021/09/01 02:51:33;;;;;;;9.00;7.78;;;15.80;99.90;;;;;;5075683;28;20118;-86
2021/09/01 02:53:59;;;;;;;11.32;8.77;;;15.80;99.90;;;;;;5075593;28;20056;-86
2021/09/01 02:56:24;;;;;;;10.80;7.85;;;15.80;99.90;;;;;;5075513;28;20036;-86
2021/09/01 02:58:50;;;;;;;11.50;8.50;;;15.80;99.90;;;;;;5074748;28;20043;-86
2021/09/01 03:01:16;;;;;;;14.20;8.63;;;15.80;99.90;;;;;;5075004;28;20481;-86
2021/09/01 03:03:41;;;;;;;9.80;7.82;;;15.80;99.90;;;;;;5075206;28;20028;-87
2021/09/01 03:06:07;;;;;;;10.35;7.80;;;15.80;99.90;;;;;;5075016;28;20030;-86
2021/09/01 03:08:33;;;;;;;12.00;9.38;;;15.80;99.90;;;;;;5075112;28;20032;-86
2021/09/01 03:10:59;;;;;;;11.30;9.30;;;15.80;99.90;;;;;;5074615;28;20133;-86
2021/09/01 03:13:24;;;;;;;14.57;10.35;;;15.80;99.90;;;;;;5075391;28;20029;-86
2021/09/01 03:15:50;;;;;;;11.95;9.13;;;15.80;99.90;;;;;;5075042;28;20021;-86
2021/09/01 03:18:16;;;;;;;10.88;9.52;;;15.80;99.90;;;;;;5075077;28;20047;-86
2021/09/01 03:20:41;;;;;;;11.07;9.48;;;15.80;99.90;;;;;;5075070;28;20028;-85
2021/09/01 03:23:07;;;;;;;12.98;9.60;;;15.70;99.90;;;;;;5076349;28;20020;-85
2021/09/01 03:25:33;;;;;;;11.30;9.25;;;15.80;99.90;;;;;;5076206;28;20024;-86
2021/09/01 03:27:59;;;;;;;14.52;9.68;;;15.80;99.90;;;;;;5074930;28;20021;-86
2021/09/01 03:30:27;;;;;;;12.02;9.00;;;15.80;99.90;;;;;;5074027;28;20024;-86
2021/09/01 03:32:52;;;;;;;9.90;8.90;;;15.80;99.90;;;;;;5074675;28;20077;-86
2021/09/01 03:35:18;;;;;;;11.35;9.65;;;15.80;99.90;;;;;;5074681;28;20024;-85
2021/09/01 03:37:44;;;;;;;10.70;8.95;;;15.80;99.90;;;;;;5074367;28;20016;-86
2021/09/01 03:40:10;;;;;;;15.15;9.10;;;15.80;99.90;;;;;;5073825;28;20399;-85
2021/09/01 03:42:35;;;;;;;15.48;8.40;;;15.80;99.90;;;;;;5075851;28;20021;-85
2021/09/01 03:45:02;;;;;;;12.38;9.90;;;15.80;99.90;;;;;;5074263;28;20433;-85
2021/09/01 18:27:53;;;;;;;32.65;19.63;;;17.20;99.90;;;;;;5090959;28;20752;-87
2021/09/01 18:30:22;;;;;;;37.95;22.13;;;17.00;99.90;;;;;;5091214;28;20074;-90
2021/09/01 18:32:51;;;;;;;33.40;21.55;;;17.00;99.90;;;;;;5091260;28;20024;-90
2021/09/01 18:35:19;;;;;;;41.20;23.55;;;17.10;99.90;;;;;;5091576;28;20103;-90
2021/09/01 18:37:45;;;;;;;46.40;25.98;;;17.20;99.90;;;;;;5090649;28;20034;-91
2021/09/01 18:40:11;;;;;;;42.28;24.95;;;17.20;99.90;;;;;;5091306;28;20103;-91
2021/09/01 18:42:39;;;;;;;42.15;25.38;;;17.30;99.90;;;;;;5090286;28;20052;-94
2021/09/01 18:45:05;;;;;;;34.42;22.33;;;17.30;99.90;;;;;;5090663;28;20111;-91
2021/09/01 18:47:32;;;;;;;30.45;20.23;;;17.40;99.90;;;;;;5090273;28;20033;-91
2021/09/01 18:49:58;;;;;;;33.05;21.40;;;17.40;99.90;;;;;;5089304;28;20027;-89
2021/09/01 18:52:30;;;;;;;31.95;20.58;;;17.40;99.90;;;;;;5090593;28;20462;-86
2021/09/01 18:54:56;;;;;;;31.48;20.17;;;17.40;99.90;;;;;;5088665;28;20024;-88
2021/09/01 18:57:22;;;;;;;35.75;22.23;;;17.40;99.90;;;;;;5090044;28;20027;-92
2021/09/01 18:59:49;;;;;;;36.22;23.15;;;17.40;99.90;;;;;;5089873;28;20024;-90
2021/09/01 19:02:18;;;;;;;35.45;22.23;;;17.50;99.90;;;;;;5089183;28;20032;-92
2021/09/01 19:04:47;;;;;;;38.83;22.42;;;17.40;99.90;;;;;;5090159;28;20061;-86
2021/09/01 19:07:24;;;;;;;41.88;23.55;;;17.40;99.90;;;;;;5088937;28;20467;-89
2021/09/01 19:10:11;;;;;;;32.13;21.52;;;17.40;99.90;;;;;;5090280;28;20027;-89
2021/09/01 19:12:39;;;;;;;31.55;20.58;;;17.30;99.90;;;;;;5088495;28;20378;-89
2021/09/01 19:15:07;;;;;;;29.52;18.85;;;17.30;99.90;;;;;;5088842;28;20024;-89
2021/09/01 19:17:33;;;;;;;25.23;17.33;;;17.30;99.90;;;;;;5089236;28;20415;-89
2021/09/01 19:19:59;;;;;;;75.78;53.10;;;17.30;99.90;;;;;;5085781;28;20035;-91
2021/09/01 19:22:31;;;;;;;39.00;24.17;;;17.30;99.90;;;;;;5089587;28;20073;-93
2021/09/01 19:24:57;;;;;;;32.88;20.48;;;17.30;99.90;;;;;;5089692;28;20028;-89
2021/09/01 19:27:32;;;;;;;27.33;18.80;;;17.30;99.90;;;;;;5089270;28;20060;-85
2021/09/01 19:30:00;;;;;;;32.95;21.67;;;17.40;99.90;;;;;;5089350;28;20017;-86
2021/09/01 19:32:30;;;;;;;30.33;20.50;;;17.40;99.90;;;;;;5089150;28;20113;-86
2021/09/01 19:34:56;;;;;;;28.60;19.02;;;17.40;99.90;;;;;;5089561;28;20095;-91
2021/09/01 19:37:23;;;;;;;22.95;16.55;;;17.50;99.90;;;;;;5085825;28;20505;-86
2021/09/01 19:39:49;;;;;;;23.95;17.25;;;17.50;99.90;;;;;;5074377;28;20872;-86
2021/09/01 19:42:17;;;;;;;25.83;16.55;;;17.50;99.90;;;;;;5076784;28;20028;-91
2021/09/01 19:44:43;;;;;;;22.17;15.45;;;17.60;99.90;;;;;;5076427;28;20086;-89
2021/09/01 19:47:11;;;;;;;21.65;15.13;;;17.60;99.90;;;;;;5074880;28;20020;-89
2021/09/01 19:49:37;;;;;;;23.08;15.85;;;17.60;99.90;;;;;;5074655;28;20017;-88
2021/09/01 19:52:04;;;;;;;26.77;16.95;;;17.70;99.90;;;;;;5074077;28;20025;-87
2021/09/01 19:54:31;;;;;;;33.22;20.00;;;17.70;99.90;;;;;;5075024;28;20021;-89
2021/09/01 19:56:57;;;;;;;26.25;17.25;;;17.70;99.90;;;;;;5074684;28;20028;-87
2021/09/01 19:59:24;;;;;;;30.10;18.35;;;17.60;99.90;;;;;;5074713;28;20399;-89
2021/09/01 20:01:52;;;;;;;29.90;19.00;;;17.50;99.90;;;;;;5073852;28;20035;-86
2021/09/01 20:04:18;;;;;;;25.75;17.33;;;17.50;99.90;;;;;;5075727;28;20036;-84
2021/09/01 20:06:45;;;;;;;21.63;15.25;;;17.50;99.90;;;;;;5074451;28;20116;-85
2021/09/01 20:09:11;;;;;;;24.00;16.63;;;17.50;99.90;;;;;;5074601;28;20016;-85
2021/09/01 20:11:37;;;;;;;25.33;16.23;;;17.50;99.90;;;;;;5074980;28;20026;-86
2021/09/01 20:14:04;;;;;;;21.45;16.27;;;17.50;99.90;;;;;;5074510;28;20032;-88
2021/09/01 20:16:31;;;;;;;21.15;14.70;;;17.40;99.90;;;;;;5074462;28;20024;-84
2021/09/01 20:18:57;;;;;;;21.92;14.60;;;17.40;99.90;;;;;;5075713;28;20028;-84
2021/09/01 20:21:24;;;;;;;18.55;14.27;;;17.40;99.90;;;;;;5073932;28;20039;-84
2021/09/01 20:23:50;;;;;;;21.98;14.88;;;17.40;99.90;;;;;;5074207;28;20542;-85
2021/09/01 20:26:18;;;;;;;20.40;15.38;;;17.40;99.90;;;;;;5075252;28;20053;-84
2021/09/01 20:28:45;;;;;;;22.75;14.75;;;17.40;99.90;;;;;;5075547;28;20040;-85
2021/09/01 20:31:13;;;;;;;20.98;14.75;;;17.40;99.90;;;;;;5074190;28;20534;-84
2021/09/01 20:33:42;;;;;;;19.30;14.57;;;17.30;99.90;;;;;;5074024;28;20028;-86
2021/09/01 20:36:12;;;;;;;21.00;15.45;;;17.40;99.90;;;;;;5074221;28;20032;-84
2021/09/01 20:38:39;;;;;;;22.48;15.25;;;17.40;99.90;;;;;;5075392;28;20466;-84
2021/09/01 20:41:06;;;;;;;22.27;16.15;;;17.40;99.90;;;;;;5075213;28;20033;-85
2021/09/01 20:43:40;;;;;;;25.63;16.40;;;17.40;99.90;;;;;;5074003;28;20033;-84
2021/09/01 20:46:05;;;;;;;22.38;16.00;;;17.40;99.90;;;;;;5074911;28;20042;-85
2021/09/01 20:48:33;;;;;;;22.05;16.33;;;17.40;99.90;;;;;;5075136;28;20103;-90
2021/09/01 20:51:04;;;;;;;24.20;17.23;;;17.40;99.90;;;;;;5072829;28;20020;-84
2021/09/01 20:53:30;;;;;;;21.23;15.73;;;17.50;99.90;;;;;;5073625;28;20024;-84
2021/09/01 20:56:00;;;;;;;22.50;15.82;;;17.40;99.90;;;;;;5073785;28;20475;-86
2021/09/01 20:58:31;;;;;;;22.05;16.38;;;17.40;99.90;;;;;;5073699;28;20182;-85
2021/09/01 21:00:57;;;;;;;34.13;20.75;;;17.40;99.90;;;;;;5073732;28;20077;-87
2021/09/01 21:03:26;;;;;;;29.92;19.25;;;17.40;99.90;;;;;;5073479;28;20039;-86
2021/09/01 21:05:55;;;;;;;34.20;21.90;;;17.40;99.90;;;;;;5073640;28;20028;-86
2021/09/01 21:08:22;;;;;;;28.30;18.92;;;17.40;99.90;;;;;;5073431;28;20024;-84
2021/09/01 21:10:47;;;;;;;30.23;19.27;;;17.40;99.90;;;;;;5074705;28;20432;-85
2021/09/01 21:13:14;;;;;;;38.50;23.73;;;17.40;99.90;;;;;;5073875;28;20060;-85
2021/09/01 21:15:39;;;;;;;36.05;21.45;;;17.40;99.90;;;;;;5074628;28;20024;-84
2021/09/01 21:18:11;;;;;;;32.97;21.55;;;17.30;99.90;;;;;;5074859;28;20568;-84
2021/09/01 21:20:37;;;;;;;35.80;21.67;;;17.30;99.90;;;;;;5074862;28;20017;-85
2021/09/01 21:23:05;;;;;;;39.88;24.20;;;17.30;99.90;;;;;;5074336;28;20039;-90
2021/09/01 21:25:32;;;;;;;38.88;22.80;;;17.30;99.90;;;;;;5073013;28;20086;-86
2021/09/01 21:27:59;;;;;;;28.80;19.65;;;17.30;99.90;;;;;;5072919;28;20028;-84
2021/09/01 21:30:33;;;;;;;26.50;19.33;;;17.30;99.90;;;;;;5074073;28;20137;-82
2021/09/01 21:33:07;;;;;;;35.30;22.50;;;17.30;99.90;;;;;;5072988;28;20031;-85
2021/09/01 21:35:33;;;;;;;33.30;22.70;;;17.30;99.90;;;;;;5073002;28;20255;-85
2021/09/01 21:37:59;;;;;;;34.80;21.92;;;17.30;99.90;;;;;;5073006;28;20119;-84
2021/09/01 21:40:26;;;;;;;32.80;22.48;;;17.30;99.90;;;;;;5072991;28;20025;-84
2021/09/01 21:42:54;;;;;;;39.63;24.67;;;17.30;99.90;;;;;;5074179;28;20048;-84
2021/09/01 21:45:20;;;;;;;37.53;23.63;;;17.30;99.90;;;;;;5072889;28;20021;-87
2021/09/01 21:47:46;;;;;;;32.13;21.52;;;17.30;99.90;;;;;;5072732;28;20025;-83
2021/09/01 21:50:13;;;;;;;36.83;21.80;;;17.20;99.90;;;;;;5074065;28;20028;-84
2021/09/01 21:52:39;;;;;;;32.78;21.90;;;17.20;99.90;;;;;;5072593;28;20017;-83
2021/09/01 21:55:05;;;;;;;33.50;22.95;;;17.20;99.90;;;;;;5072867;28;20036;-87
2021/09/01 21:57:31;;;;;;;33.45;22.05;;;17.30;99.90;;;;;;5072366;28;20109;-89
2021/09/01 21:59:57;;;;;;;29.88;20.02;;;17.20;99.90;;;;;;5073698;28;20059;-84
2021/09/01 22:02:25;;;;;;;29.67;20.95;;;17.20;99.90;;;;;;5074226;28;20170;-87
2021/09/01 22:04:52;;;;;;;35.65;22.70;;;17.20;99.90;;;;;;5072719;28;20036;-86
2021/09/01 22:07:18;;;;;;;31.60;21.92;;;17.20;99.90;;;;;;5073909;28;20066;-85
2021/09/01 22:09:44;;;;;;;29.95;20.95;;;17.30;99.90;;;;;;5073596;28;20032;-84
2021/09/01 22:12:10;;;;;;;31.80;22.13;;;17.20;99.90;;;;;;5073707;28;20024;-90
2021/09/01 22:14:35;;;;;;;46.13;27.55;;;17.20;99.90;;;;;;5072768;28;20082;-90
2021/09/01 22:17:01;;;;;;;32.42;22.23;;;17.20;99.90;;;;;;5072343;28;20378;-87
2021/09/01 22:19:27;;;;;;;27.63;19.70;;;17.10;99.90;;;;;;5072466;28;20029;-84
2021/09/01 22:21:52;;;;;;;33.97;23.65;;;17.10;99.90;;;;;;5072985;28;20055;-87
2021/09/01 22:24:18;;;;;;;30.98;21.83;;;17.10;99.90;;;;;;5072022;28;20128;-86
2021/09/01 22:26:44;;;;;;;39.22;25.60;;;17.00;99.90;;;;;;5072218;28;20097;-83
2021/09/01 22:29:10;;;;;;;36.53;23.42;;;17.10;99.90;;;;;;5072537;28;20062;-90
2021/09/01 22:31:36;;;;;;;33.03;23.45;;;17.00;99.90;;;;;;5073597;28;20359;-84
2021/09/01 22:34:02;;;;;;;38.20;25.02;;;17.00;99.90;;;;;;5073458;28;20021;-85
2021/09/01 22:36:27;;;;;;;34.70;22.88;;;17.00;99.90;;;;;;5073487;28;20057;-84
2021/09/01 22:38:53;;;;;;;38.15;24.92;;;16.90;99.90;;;;;;5072119;28;20035;-86
2021/09/01 22:41:19;;;;;;;33.72;24.83;;;17.00;99.90;;;;;;5072496;28;20028;-84
2021/09/01 22:43:45;;;;;;;34.72;24.23;;;17.10;99.90;;;;;;5073855;28;20060;-84
2021/09/01 22:46:10;;;;;;;43.33;27.17;;;17.00;99.90;;;;;;5073806;28;20024;-85
2021/09/01 22:48:36;;;;;;;39.42;26.33;;;17.00;99.90;;;;;;5073369;28;20035;-83
2021/09/01 22:51:02;;;;;;;36.75;24.95;;;17.00;99.90;;;;;;5073583;28;20409;-84
2021/09/01 22:53:27;;;;;;;32.55;21.90;;;17.00;99.90;;;;;;5072894;28;20031;-85
2021/09/01 22:55:53;;;;;;;35.35;25.08;;;17.00;99.90;;;;;;5072033;28;20079;-83
2021/09/01 22:58:19;;;;;;;35.35;23.98;;;17.00;99.90;;;;;;5073777;28;20024;-83
2021/09/01 23:00:44;;;;;;;36.38;25.85;;;17.00;99.90;;;;;;5072000;28;20029;-84
2021/09/01 23:03:10;;;;;;;35.17;25.17;;;17.00;99.90;;;;;;5072012;28;20098;-84
2021/09/01 23:05:39;;;;;;;36.17;25.50;;;17.00;99.90;;;;;;5071890;28;20039;-83
2021/09/01 23:08:08;;;;;;;37.53;26.48;;;17.10;99.90;;;;;;5072941;28;20506;-83
2021/09/01 23:10:33;;;;;;;44.00;27.77;;;17.10;99.90;;;;;;5073140;28;20036;-81
2021/09/01 23:12:59;;;;;;;50.10;32.60;;;17.20;99.90;;;;;;5072962;28;20025;-81
2021/09/01 23:15:25;;;;;;;51.97;31.42;;;17.20;99.90;;;;;;5077139;28;20030;-87
2021/09/01 23:17:50;;;;;;;46.47;29.80;;;17.30;99.90;;;;;;5076902;28;20086;-89
2021/09/01 23:20:17;;;;;;;53.47;33.75;;;17.30;99.90;;;;;;5077336;28;20046;-85
2021/09/01 23:22:43;;;;;;;53.38;32.53;;;17.40;99.90;;;;;;5076900;28;20506;-85
2021/09/01 23:25:10;;;;;;;60.28;36.50;;;17.30;99.90;;;;;;5075430;28;20086;-79
2021/09/01 23:27:36;;;;;;;64.97;39.42;;;17.40;99.90;;;;;;5076546;28;20098;-85
2021/09/01 23:30:03;;;;;;;66.18;37.42;;;17.40;99.90;;;;;;5076717;28;20533;-83
2021/09/01 23:32:29;;;;;;;45.83;31.00;;;17.30;99.90;;;;;;5075459;28;20029;-85
2021/09/01 23:34:54;;;;;;;45.63;31.70;;;17.40;99.90;;;;;;5074975;28;20119;-82
2021/09/01 23:37:20;;;;;;;58.53;36.58;;;17.40;99.90;;;;;;5075438;28;20055;-90
2021/09/01 23:39:45;;;;;;;57.63;36.50;;;17.40;99.90;;;;;;5074944;28;20036;-82
2021/09/01 23:42:11;;;;;;;39.13;29.92;;;17.40;99.90;;;;;;5075246;28;20036;-82
2021/09/01 23:44:37;;;;;;;55.13;35.72;;;17.40;99.90;;;;;;5075476;28;20033;-84
2021/09/01 23:47:03;;;;;;;41.70;28.95;;;17.50;99.90;;;;;;5074897;28;20064;-83
2021/09/01 23:49:29;;;;;;;46.40;30.50;;;17.50;99.90;;;;;;5075231;28;20020;-87
2021/09/01 23:51:54;;;;;;;38.92;28.65;;;17.50;99.90;;;;;;5076607;28;20027;-84
2021/09/01 23:54:20;;;;;;;64.55;40.78;;;17.50;99.90;;;;;;5075216;28;20033;-85
2021/09/01 23:56:46;;;;;;;63.38;39.50;;;17.60;99.90;;;;;;5076974;28;20028;-92
2021/09/01 23:59:11;;;;;;;54.42;36.42;;;17.60;99.90;;;;;;5076969;28;20055;-89
